Terminal Aerodrome Forecast
Issued by NWS

Home | Current Version | Previous Version | Text Only | Print | Product List | Glossary Off
Versions: 1 2 3 4 5 6 7 8 9 10 11

000
FTUS43 KICT 251745
TAFHUT
TAF
KHUT 251745Z 2518/2618 18024G31KT P6SM SCT250
     FM260100 19014KT P6SM SCT250
     FM260600 21007KT P6SM SCT250
     FM261000 36010KT P6SM SCT009
     FM261300 01011KT P6SM SCT009 BKN015=

USA.gov is the U.S. government's official web portal to all federal, state and local government web resources and services.